createdAt,value
2022-10-03T00:00:00.137Z,3.50
2022-10-03T00:02:45.618Z,3.00
2022-10-03T00:05:31.647Z,4.80
2022-10-03T00:08:10.916Z,3.13
2022-10-03T00:10:43.917Z,3.43
2022-10-03T00:13:13.930Z,3.23
2022-10-03T00:15:41.138Z,3.23
2022-10-03T00:18:19.259Z,3.80
2022-10-03T00:20:46.413Z,3.57
2022-10-03T00:23:14.928Z,3.33
2022-10-03T00:25:59.426Z,4.87
2022-10-03T00:28:44.752Z,3.73
2022-10-03T00:31:14.209Z,3.20
2022-10-03T00:33:52.505Z,3.40
2022-10-03T00:36:25.448Z,3.03
2022-10-03T00:39:06.146Z,3.07
2022-10-03T00:41:44.058Z,3.40
2022-10-03T00:44:30.044Z,3.30
2022-10-03T00:47:02.353Z,3.43
2022-10-03T00:49:32.359Z,2.90
2022-10-03T00:52:11.626Z,3.87
2022-10-03T00:54:44.916Z,3.03
2022-10-03T00:57:14.253Z,4.10
2022-10-03T00:59:56.447Z,3.83
2022-10-03T01:02:30.492Z,3.23
2022-10-03T01:05:16.184Z,3.33
2022-10-03T01:07:54.894Z,4.00
2022-10-03T01:10:22.279Z,3.53
2022-10-03T01:12:55.893Z,3.40
2022-10-03T01:15:31.754Z,2.80
2022-10-03T01:17:58.995Z,3.13
2022-10-03T01:20:37.984Z,4.03
2022-10-03T01:23:19.994Z,3.87
2022-10-03T01:25:49.893Z,3.03
2022-10-03T01:28:41.534Z,3.10
2022-10-03T01:31:11.059Z,2.43
2022-10-03T01:33:47.865Z,3.17
2022-10-03T01:36:19.356Z,3.73
2022-10-03T01:38:50.130Z,3.60
2022-10-03T01:41:43.271Z,3.13
2022-10-03T01:44:12.819Z,4.47
2022-10-03T01:46:44.041Z,3.60
2022-10-03T01:49:37.439Z,3.30
2022-10-03T01:52:07.299Z,3.13
2022-10-03T01:54:40.490Z,3.60
2022-10-03T01:57:13.626Z,3.03
2022-10-03T02:00:01.087Z,3.53
2022-10-03T02:02:29.390Z,3.40
2022-10-03T02:05:20.004Z,2.73
2022-10-03T02:08:02.337Z,3.70
2022-10-03T02:10:45.504Z,2.87
2022-10-03T02:13:37.008Z,3.13
2022-10-03T02:16:19.485Z,3.00
2022-10-03T02:19:06.003Z,3.63
2022-10-03T02:21:33.911Z,3.17
2022-10-03T02:24:25.120Z,3.07
2022-10-03T02:27:11.820Z,3.47
2022-10-03T02:30:02.410Z,3.00
2022-10-03T02:32:40.558Z,3.73
2022-10-03T02:35:08.436Z,3.43
2022-10-03T02:37:35.600Z,3.67
2022-10-03T02:40:22.923Z,2.83
2022-10-03T02:43:05.500Z,3.27
2022-10-03T02:45:47.088Z,3.27
2022-10-03T02:48:31.206Z,3.40
2022-10-03T02:51:02.386Z,3.30
2022-10-03T02:53:48.426Z,3.00
2022-10-03T02:56:28.575Z,3.70
2022-10-03T02:58:58.682Z,3.47
2022-10-03T03:01:38.679Z,3.13
2022-10-03T03:04:17.743Z,3.20
2022-10-03T03:07:05.139Z,3.33
2022-10-03T03:09:50.847Z,3.33
2022-10-03T03:12:21.116Z,2.90
2022-10-03T03:14:48.217Z,3.00
2022-10-03T03:17:15.681Z,3.10
2022-10-03T03:20:12.219Z,3.60
2022-10-03T03:22:51.630Z,3.23
2022-10-03T03:25:35.744Z,3.63
2022-10-03T03:28:19.566Z,3.57
2022-10-03T03:30:55.882Z,3.50
2022-10-03T03:33:45.170Z,3.60
2022-10-03T03:36:31.295Z,3.13
2022-10-03T03:39:14.774Z,4.10
2022-10-03T03:42:00.789Z,3.03
2022-10-03T03:44:46.581Z,3.30
2022-10-03T03:47:17.031Z,3.47
2022-10-03T03:49:58.072Z,3.50
2022-10-03T03:52:31.531Z,3.40
2022-10-03T03:54:59.856Z,3.90
2022-10-03T03:57:44.260Z,3.33
2022-10-03T04:00:31.417Z,3.27
2022-10-03T04:03:04.574Z,3.93
2022-10-03T04:05:50.335Z,3.60
2022-10-03T04:08:21.159Z,3.20
2022-10-03T04:10:48.296Z,3.30
2022-10-03T04:13:32.041Z,3.47
2022-10-03T04:16:08.332Z,3.40
2022-10-03T04:18:58.182Z,3.20
2022-10-03T04:21:31.434Z,4.47
2022-10-03T04:24:19.771Z,3.60
2022-10-03T04:27:00.600Z,3.20
2022-10-03T04:29:48.045Z,3.53
2022-10-03T04:32:28.271Z,3.30
2022-10-03T04:34:58.523Z,3.70
2022-10-03T04:37:45.273Z,3.43
2022-10-03T04:40:31.590Z,4.17
2022-10-03T04:43:19.578Z,7.50
2022-10-03T04:45:46.810Z,3.70
2022-10-03T04:48:28.976Z,4.20
2022-10-03T04:51:08.571Z,3.20
2022-10-03T04:53:56.851Z,3.83
2022-10-03T04:56:23.960Z,3.60
2022-10-03T04:59:04.661Z,4.60
2022-10-03T05:01:46.803Z,4.50
2022-10-03T05:04:16.768Z,3.93
2022-10-03T05:06:52.971Z,4.10
2022-10-03T05:09:32.792Z,3.90
2022-10-03T05:12:03.779Z,4.17
2022-10-03T05:14:51.185Z,3.40
2022-10-03T05:17:37.343Z,3.97
2022-10-03T05:20:15.384Z,3.20
2022-10-03T05:23:01.754Z,4.50
2022-10-03T05:25:35.194Z,4.10
2022-10-03T05:28:07.807Z,4.27
2022-10-03T05:30:50.077Z,4.27
2022-10-03T05:33:21.069Z,4.83
2022-10-03T05:36:03.514Z,5.53
2022-10-03T05:38:34.630Z,5.07
2022-10-03T05:41:04.554Z,4.90
2022-10-03T05:43:47.804Z,3.67
2022-10-03T05:46:35.288Z,3.47
2022-10-03T05:49:05.587Z,4.13
2022-10-03T05:51:34.140Z,3.73
2022-10-03T05:54:10.497Z,3.83
2022-10-03T05:56:48.383Z,4.50
2022-10-03T05:59:22.293Z,3.73
2022-10-03T06:01:52.303Z,4.37
2022-10-03T06:04:22.223Z,4.20
2022-10-03T06:07:06.652Z,4.00
2022-10-03T06:09:41.986Z,4.03
2022-10-03T06:12:15.637Z,4.87
2022-10-03T06:14:56.481Z,5.20
2022-10-03T06:17:29.692Z,5.50
2022-10-03T06:19:59.540Z,5.20
2022-10-03T06:22:45.533Z,4.53
2022-10-03T06:25:12.677Z,4.20
2022-10-03T06:28:00.621Z,4.43
2022-10-03T06:30:39.947Z,4.53
2022-10-03T06:33:10.206Z,7.27
2022-10-03T06:35:52.469Z,5.40
2022-10-03T06:38:22.915Z,4.73
2022-10-03T06:41:01.178Z,5.00
2022-10-03T06:43:30.077Z,4.53
2022-10-03T06:46:09.092Z,5.40
2022-10-03T06:48:36.258Z,6.57
2022-10-03T06:51:03.998Z,5.40
2022-10-03T06:53:51.217Z,6.27
2022-10-03T06:56:19.201Z,5.43
2022-10-03T06:59:13.034Z,5.13
2022-10-03T07:01:59.690Z,5.23
2022-10-03T07:04:53.147Z,5.73
2022-10-03T07:07:20.429Z,6.50
2022-10-03T07:09:58.111Z,6.87
2022-10-03T07:12:34.265Z,5.30
2022-10-03T07:15:20.045Z,5.50
2022-10-03T07:18:06.305Z,6.20
2022-10-03T07:20:45.779Z,6.30
2022-10-03T07:23:31.647Z,6.53
2022-10-03T07:26:17.626Z,6.67
2022-10-03T07:28:44.746Z,6.77
2022-10-03T07:31:19.893Z,6.97
2022-10-03T07:33:56.088Z,14.40
2022-10-03T07:36:47.035Z,7.93
2022-10-03T07:39:33.051Z,6.80
2022-10-03T07:42:19.199Z,6.30
2022-10-03T07:44:46.649Z,6.17
2022-10-03T07:47:32.522Z,5.30
2022-10-03T07:50:07.240Z,6.07
2022-10-03T07:52:34.484Z,5.77
2022-10-03T07:55:13.636Z,5.80
2022-10-03T07:57:51.960Z,5.57
2022-10-03T08:00:24.455Z,5.50
2022-10-03T08:03:10.795Z,4.77
2022-10-03T08:05:46.671Z,5.53
2022-10-03T08:08:33.526Z,6.03
2022-10-03T08:11:27.144Z,4.63
2022-10-03T08:13:58.051Z,5.27
2022-10-03T08:16:43.753Z,4.57
2022-10-03T08:19:29.663Z,5.37
2022-10-03T08:22:15.616Z,5.30
2022-10-03T08:25:02.869Z,4.70
2022-10-03T08:27:44.754Z,5.40
2022-10-03T08:30:42.157Z,4.57
2022-10-03T08:33:12.733Z,3.90
2022-10-03T08:35:58.727Z,5.97
2022-10-03T08:38:49.691Z,4.97
2022-10-03T08:41:28.230Z,4.77
2022-10-03T08:44:04.163Z,4.40
2022-10-03T08:46:39.270Z,4.17
2022-10-03T08:49:18.810Z,3.90
2022-10-03T08:51:59.755Z,4.50
2022-10-03T08:54:33.075Z,4.03
2022-10-03T08:57:00.318Z,3.70
2022-10-03T08:59:31.127Z,3.80
2022-10-03T09:01:58.372Z,3.90
2022-10-03T09:04:45.107Z,4.37
2022-10-03T09:07:32.777Z,3.73
2022-10-03T09:10:09.018Z,3.97
2022-10-03T09:12:42.807Z,4.47
2022-10-03T09:15:20.520Z,3.63
2022-10-03T09:17:55.879Z,3.33
2022-10-03T09:20:29.469Z,2.83
2022-10-03T09:22:56.978Z,3.37
2022-10-03T09:25:29.960Z,3.10
2022-10-03T09:28:02.930Z,4.53
2022-10-03T09:30:33.224Z,4.37
2022-10-03T09:33:00.320Z,3.13
2022-10-03T09:35:36.463Z,3.27
2022-10-03T09:38:03.628Z,2.33
2022-10-03T09:40:52.589Z,2.63
2022-10-03T09:43:20.552Z,2.70
2022-10-03T09:46:06.364Z,2.53
2022-10-03T09:48:33.483Z,2.57
2022-10-03T09:51:15.818Z,2.67
2022-10-03T09:53:55.918Z,2.87
2022-10-03T09:56:38.635Z,2.77
2022-10-03T09:59:21.308Z,2.20
2022-10-03T10:01:53.203Z,2.27
2022-10-03T10:04:43.523Z,2.20
2022-10-03T10:07:16.976Z,2.20
2022-10-03T10:09:53.027Z,2.80
2022-10-03T10:12:30.606Z,2.00
2022-10-03T10:15:03.639Z,2.13
2022-10-03T10:17:46.042Z,2.30
2022-10-03T10:20:31.619Z,2.17
2022-10-03T10:23:08.045Z,2.00
2022-10-03T10:25:42.361Z,1.30
2022-10-03T10:28:28.129Z,1.90
2022-10-03T10:30:55.848Z,1.70
2022-10-03T10:33:41.652Z,2.73
2022-10-03T10:36:18.390Z,1.90
2022-10-03T10:38:51.600Z,1.83
2022-10-03T10:41:40.090Z,2.20
2022-10-03T10:44:26.586Z,1.40
2022-10-03T10:47:13.273Z,1.70
2022-10-03T10:49:52.762Z,1.80
2022-10-03T10:52:26.133Z,2.33
2022-10-03T10:54:53.274Z,1.60
2022-10-03T10:57:40.499Z,1.70
2022-10-03T11:00:27.374Z,1.90
2022-10-03T11:03:13.460Z,2.07
2022-10-03T11:05:45.096Z,1.90
2022-10-03T11:08:15.236Z,2.93
2022-10-03T11:10:52.381Z,1.93
2022-10-03T11:13:41.282Z,3.90
2022-10-03T11:16:23.485Z,1.97
2022-10-03T11:19:05.770Z,1.80
2022-10-03T11:21:35.933Z,1.73
2022-10-03T11:24:27.825Z,1.70
2022-10-03T11:26:58.265Z,2.00
2022-10-03T11:29:35.844Z,2.20
2022-10-03T11:32:13.052Z,1.43
2022-10-03T11:34:40.250Z,1.67
2022-10-03T11:37:16.619Z,1.60
2022-10-03T11:39:43.740Z,1.67
2022-10-03T11:42:35.415Z,1.93
2022-10-03T11:45:04.022Z,2.03
2022-10-03T11:47:36.931Z,2.13
2022-10-03T11:50:22.726Z,2.07
2022-10-03T11:53:08.684Z,2.10
2022-10-03T11:55:51.604Z,1.70
2022-10-03T11:58:24.929Z,2.10
2022-10-03T12:01:00.356Z,2.67
2022-10-03T12:03:30.113Z,2.07
2022-10-03T12:06:18.047Z,1.60
2022-10-03T12:09:05.598Z,1.60
2022-10-03T12:11:32.708Z,2.50
2022-10-03T12:14:10.866Z,1.27
2022-10-03T12:16:58.168Z,2.23
2022-10-03T12:19:40.775Z,1.70
2022-10-03T12:22:10.741Z,2.20
2022-10-03T12:24:41.836Z,2.13
2022-10-03T12:27:20.524Z,1.63
2022-10-03T12:29:54.910Z,1.50
2022-10-03T12:32:28.466Z,1.67
2022-10-03T12:35:14.572Z,1.87
2022-10-03T12:37:45.094Z,1.50
2022-10-03T12:40:15.753Z,1.67
2022-10-03T12:42:45.659Z,1.20
2022-10-03T12:45:31.406Z,1.67
2022-10-03T12:48:16.942Z,1.70
2022-10-03T12:50:55.228Z,1.60
2022-10-03T12:53:25.263Z,2.10
2022-10-03T12:56:11.142Z,1.90
2022-10-03T12:58:41.410Z,1.30
2022-10-03T13:01:28.579Z,2.10
2022-10-03T13:04:01.856Z,1.80
2022-10-03T13:07:01.234Z,1.90
2022-10-03T13:09:27.248Z,1.40
2022-10-03T13:12:16.591Z,1.93
2022-10-03T13:15:03.296Z,1.90
2022-10-03T13:17:36.208Z,2.37
2022-10-03T13:20:06.561Z,2.00
2022-10-03T13:22:35.147Z,1.63
2022-10-03T13:25:02.291Z,1.50
2022-10-03T13:27:32.515Z,1.33
2022-10-03T13:30:06.155Z,1.60
2022-10-03T13:32:42.622Z,1.50
2022-10-03T13:36:00.250Z,2.50
2022-10-03T13:38:37.118Z,1.67
2022-10-03T13:41:10.248Z,2.23
2022-10-03T13:43:39.464Z,1.23
2022-10-03T13:46:14.297Z,1.60
2022-10-03T13:48:44.293Z,1.33
2022-10-03T13:51:29.246Z,1.60
2022-10-03T13:54:03.236Z,1.30
2022-10-03T13:56:33.423Z,1.47
2022-10-03T13:59:08.824Z,1.40
2022-10-03T14:01:39.440Z,1.80
2022-10-03T14:04:20.767Z,1.70
2022-10-03T14:06:51.149Z,1.60
2022-10-03T14:09:21.400Z,1.40
2022-10-03T14:11:48.534Z,1.73
2022-10-03T14:14:23.964Z,1.40
2022-10-03T14:17:01.247Z,1.30
2022-10-03T14:19:32.560Z,1.77
2022-10-03T14:22:07.407Z,1.40
2022-10-03T14:24:53.485Z,1.57
2022-10-03T14:27:42.161Z,1.57
2022-10-03T14:30:31.232Z,1.27
2022-10-03T14:33:24.853Z,2.30
2022-10-03T14:36:12.010Z,2.10
2022-10-03T14:39:07.628Z,1.73
2022-10-03T14:41:39.902Z,1.30
2022-10-03T14:44:33.472Z,1.27
2022-10-03T14:47:08.341Z,1.97
2022-10-03T14:49:57.908Z,2.07
2022-10-03T14:52:32.582Z,1.17
2022-10-03T14:55:07.562Z,1.30
2022-10-03T14:58:05.616Z,1.33
2022-10-03T15:00:36.118Z,1.50
2022-10-03T15:03:19.580Z,1.53
2022-10-03T15:06:00.070Z,1.67
2022-10-03T15:08:36.869Z,1.70
2022-10-03T15:11:06.402Z,1.60
2022-10-03T15:13:40.315Z,1.53
2022-10-03T15:16:09.537Z,1.77
2022-10-03T15:18:43.413Z,2.47
2022-10-03T15:21:14.413Z,2.70
2022-10-03T15:23:43.354Z,2.57
2022-10-03T15:26:15.767Z,2.17
2022-10-03T15:28:45.363Z,2.50
2022-10-03T15:31:31.311Z,2.63
2022-10-03T15:33:59.332Z,10.37
2022-10-03T15:36:30.603Z,4.70
2022-10-03T15:39:02.415Z,4.23
2022-10-03T15:41:50.000Z,4.87
2022-10-03T15:44:34.040Z,5.00
2022-10-03T15:47:06.749Z,4.87
2022-10-03T15:49:44.710Z,4.20
2022-10-03T15:52:30.934Z,3.40
2022-10-03T15:55:11.494Z,3.00
2022-10-03T15:57:41.811Z,2.37
2022-10-03T16:00:19.506Z,1.90
2022-10-03T16:02:53.585Z,2.53
2022-10-03T16:05:27.610Z,2.20
2022-10-03T16:07:57.585Z,2.30
2022-10-03T16:10:26.453Z,2.03
2022-10-03T16:13:01.939Z,2.20
2022-10-03T16:15:48.393Z,2.30
2022-10-03T16:18:34.139Z,2.27
2022-10-03T16:21:03.055Z,2.00
2022-10-03T16:23:35.200Z,2.10
2022-10-03T16:26:05.175Z,2.43
2022-10-03T16:28:35.630Z,2.30
2022-10-03T16:31:05.454Z,3.03
2022-10-03T16:33:37.641Z,2.77
2022-10-03T16:36:18.420Z,4.97
2022-10-03T16:38:53.146Z,8.17
2022-10-03T16:41:22.937Z,5.00
2022-10-03T16:44:16.149Z,6.10
2022-10-03T16:46:44.781Z,5.10
2022-10-03T16:49:49.294Z,4.50
2022-10-03T16:52:20.423Z,4.10
2022-10-03T16:54:48.254Z,2.73
2022-10-03T16:57:17.874Z,3.07
2022-10-03T16:59:47.768Z,3.17
2022-10-03T17:02:16.152Z,3.70
2022-10-03T17:04:48.919Z,3.33
2022-10-03T17:07:16.585Z,2.83
2022-10-03T17:09:43.918Z,3.60
2022-10-03T17:12:31.118Z,2.90
2022-10-03T17:15:02.879Z,2.50
2022-10-03T17:17:30.267Z,2.67
2022-10-03T17:20:05.751Z,2.73
2022-10-03T17:22:42.598Z,2.77
2022-10-03T17:25:18.776Z,2.43
2022-10-03T17:27:49.077Z,3.23
2022-10-03T17:30:34.713Z,3.50
2022-10-03T17:33:12.721Z,3.07
2022-10-03T17:35:50.478Z,2.37
2022-10-03T17:38:48.258Z,2.43
2022-10-03T17:41:20.385Z,2.03
2022-10-03T17:44:07.344Z,1.93
2022-10-03T17:46:37.376Z,2.00
2022-10-03T17:49:14.207Z,2.10
2022-10-03T17:51:48.501Z,2.73
2022-10-03T17:54:22.627Z,2.27
2022-10-03T17:57:11.282Z,2.53
2022-10-03T17:59:46.813Z,2.57
2022-10-03T18:02:21.591Z,2.07
2022-10-03T18:04:55.274Z,2.73
2022-10-03T18:07:24.274Z,2.47
2022-10-03T18:09:54.622Z,3.63
2022-10-03T18:12:35.259Z,3.00
2022-10-03T18:15:22.603Z,3.50
2022-10-03T18:17:55.724Z,3.27
2022-10-03T18:20:36.010Z,2.93
2022-10-03T18:23:08.586Z,3.93
2022-10-03T18:26:22.633Z,3.47
2022-10-03T18:28:52.509Z,2.90
2022-10-03T18:31:22.119Z,3.03
2022-10-03T18:34:14.163Z,3.17
2022-10-03T18:36:46.554Z,2.87
2022-10-03T18:39:20.471Z,2.80
2022-10-03T18:41:49.335Z,3.20
2022-10-03T18:44:18.621Z,3.87
2022-10-03T18:46:50.819Z,4.63
2022-10-03T18:49:34.029Z,4.97
2022-10-03T18:52:10.481Z,4.17
2022-10-03T18:54:49.854Z,4.37
2022-10-03T18:57:23.178Z,3.93
2022-10-03T18:59:53.356Z,4.83
2022-10-03T19:02:39.161Z,5.33
2022-10-03T19:05:24.436Z,6.63
2022-10-03T19:08:03.851Z,5.93
2022-10-03T19:10:43.700Z,7.40
2022-10-03T19:13:16.019Z,6.37
2022-10-03T19:15:53.206Z,6.70
2022-10-03T19:18:27.466Z,6.60
2022-10-03T19:20:57.148Z,7.10
2022-10-03T19:23:28.151Z,5.67
2022-10-03T19:25:57.372Z,5.90
2022-10-03T19:28:25.686Z,4.57
2022-10-03T19:31:06.934Z,4.97
2022-10-03T19:33:39.039Z,4.73
2022-10-03T19:36:12.097Z,4.97
2022-10-03T19:38:41.167Z,4.13
2022-10-03T19:41:14.849Z,4.00
2022-10-03T19:43:49.973Z,3.37
2022-10-03T19:46:29.538Z,3.90
2022-10-03T19:48:56.727Z,5.10
2022-10-03T19:51:25.765Z,4.73
2022-10-03T19:53:54.213Z,4.93
2022-10-03T19:56:23.028Z,4.83
2022-10-03T19:59:00.072Z,4.47
2022-10-03T20:01:27.702Z,4.03
2022-10-03T20:03:58.120Z,4.83
2022-10-03T20:06:25.698Z,3.60
2022-10-03T20:09:00.803Z,4.20
2022-10-03T20:11:46.556Z,4.00
2022-10-03T20:14:27.007Z,4.63
2022-10-03T20:16:56.324Z,3.87
2022-10-03T20:19:25.669Z,4.43
2022-10-03T20:21:54.318Z,4.50
2022-10-03T20:24:27.338Z,4.70
2022-10-03T20:27:16.388Z,3.77
2022-10-03T20:29:49.416Z,4.73
2022-10-03T20:32:17.448Z,4.10
2022-10-03T20:34:55.693Z,4.43
2022-10-03T20:37:49.025Z,5.13
2022-10-03T20:40:35.817Z,4.90
2022-10-03T20:43:21.507Z,5.47
2022-10-03T20:45:59.440Z,5.27
2022-10-03T20:48:31.318Z,5.57
2022-10-03T20:50:58.505Z,6.33
2022-10-03T20:53:30.098Z,6.07
2022-10-03T20:55:57.285Z,7.17
2022-10-03T20:58:33.350Z,7.33
2022-10-03T21:01:20.023Z,6.97
2022-10-03T21:03:47.430Z,6.83
2022-10-03T21:06:20.050Z,6.63
2022-10-03T21:08:48.110Z,7.00
2022-10-03T21:11:19.493Z,6.23
2022-10-03T21:13:58.284Z,7.20
2022-10-03T21:16:30.866Z,7.33
2022-10-03T21:19:05.798Z,6.27
2022-10-03T21:21:43.583Z,5.83
2022-10-03T21:24:21.113Z,6.53
2022-10-03T21:26:49.623Z,6.60
2022-10-03T21:29:17.145Z,7.63
2022-10-03T21:31:48.540Z,6.27
2022-10-03T21:34:15.676Z,5.87
2022-10-03T21:36:52.191Z,5.90
2022-10-03T21:39:28.300Z,6.57
2022-10-03T21:42:03.375Z,5.63
2022-10-03T21:44:47.858Z,5.80
2022-10-03T21:47:22.154Z,5.67
2022-10-03T21:50:00.343Z,6.63
2022-10-03T21:52:59.964Z,6.33
2022-10-03T21:55:51.093Z,6.33
2022-10-03T21:58:18.054Z,6.03
2022-10-03T22:00:51.162Z,5.73
2022-10-03T22:03:22.734Z,6.27
2022-10-03T22:06:13.343Z,6.40
2022-10-03T22:08:48.057Z,5.77
2022-10-03T22:11:15.289Z,5.43
2022-10-03T22:13:45.367Z,5.23
2022-10-03T22:16:35.382Z,5.53
2022-10-03T22:19:15.025Z,6.03
2022-10-03T22:21:49.429Z,5.57
2022-10-03T22:24:30.655Z,6.20
2022-10-03T22:27:06.830Z,6.37
2022-10-03T22:29:37.403Z,5.97
2022-10-03T22:32:16.399Z,5.33
2022-10-03T22:34:54.442Z,5.87
2022-10-03T22:37:22.858Z,5.13
2022-10-03T22:39:51.011Z,5.27
2022-10-03T22:42:19.032Z,5.67
2022-10-03T22:44:48.409Z,5.40
2022-10-03T22:47:22.693Z,4.97
2022-10-03T22:49:51.749Z,6.03
2022-10-03T22:52:25.065Z,5.13
2022-10-03T22:54:52.983Z,5.83
2022-10-03T22:57:20.379Z,5.63
2022-10-03T22:59:51.796Z,4.90
2022-10-03T23:02:20.264Z,5.43
2022-10-03T23:04:50.570Z,5.10
2022-10-03T23:07:20.895Z,6.97
2022-10-03T23:10:01.611Z,5.80
2022-10-03T23:12:35.776Z,5.50
2022-10-03T23:15:05.118Z,5.77
2022-10-03T23:17:32.289Z,6.10
2022-10-03T23:19:59.386Z,6.07
2022-10-03T23:22:29.612Z,5.70
2022-10-03T23:25:02.655Z,5.50
2022-10-03T23:27:48.284Z,5.70
2022-10-03T23:30:19.082Z,5.67
2022-10-03T23:32:49.000Z,5.87
2022-10-03T23:35:37.122Z,5.77
2022-10-03T23:38:25.186Z,5.80
2022-10-03T23:40:52.517Z,5.37
2022-10-03T23:43:26.485Z,5.27
2022-10-03T23:45:54.933Z,5.10
2022-10-03T23:48:24.019Z,6.20
2022-10-03T23:50:53.177Z,6.03
2022-10-03T23:53:35.285Z,6.10
2022-10-03T23:56:03.600Z,6.07
2022-10-03T23:58:32.433Z,6.20
